Time;durP1;ratioP1;P1;durP2;ratioP2;P2;SDS_P1;SDS_P2;PMS_P1;PMS_P2;Temp;Humidity;BMP_temperature;BMP_pressure;BME280_temperature;BME280_humidity;BME280_pressure;Samples;Min_cycle;Max_cycle;Signal;HPM_P1;HPM_P2
2022/12/10 00:01:39;;;;;;;24.45;9.30;;;17.00;99.90;;;;;;4963976;28;20164;-77
2022/12/10 00:04:07;;;;;;;24.95;7.72;;;17.00;99.90;;;;;;4963406;28;20143;-76
2022/12/10 00:06:36;;;;;;;32.53;8.48;;;16.90;99.90;;;;;;4961879;28;20035;-77
2022/12/10 00:09:06;;;;;;;28.52;8.65;;;16.90;99.90;;;;;;4966953;28;20580;-79
2022/12/10 00:11:34;;;;;;;34.60;11.57;;;16.90;99.90;;;;;;4964984;28;20373;-76
2022/12/10 00:14:01;;;;;;;39.75;9.50;;;16.90;99.90;;;;;;4967646;28;20050;-76
2022/12/10 00:16:30;;;;;;;38.28;10.18;;;16.80;99.90;;;;;;4965743;28;20046;-77
2022/12/10 00:18:58;;;;;;;35.10;9.48;;;16.80;99.90;;;;;;4956033;28;20047;-77
2022/12/10 00:21:32;;;;;;;35.63;9.85;;;16.90;99.90;;;;;;4965862;28;20130;-78
2022/12/10 00:24:01;;;;;;;30.55;10.18;;;16.90;99.90;;;;;;4966056;28;20055;-77
2022/12/10 00:26:35;;;;;;;40.42;10.38;;;16.80;99.90;;;;;;4961863;28;20088;-78
2022/12/10 00:29:06;;;;;;;27.45;9.98;;;16.80;99.90;;;;;;4984391;28;20402;-78
2022/12/10 00:31:35;;;;;;;38.00;9.35;;;16.80;99.90;;;;;;4961537;28;20117;-76
2022/12/10 00:34:05;;;;;;;30.38;11.80;;;16.80;99.90;;;;;;4959796;28;20063;-78
2022/12/10 00:36:48;;;;;;;43.00;12.25;;;16.80;99.90;;;;;;4950757;28;20042;-78
2022/12/10 00:39:19;;;;;;;26.33;11.02;;;16.70;99.90;;;;;;4969335;28;20058;-77
2022/12/10 00:41:47;;;;;;;31.73;9.65;;;16.70;99.90;;;;;;4968698;28;20137;-77
2022/12/10 00:44:16;;;;;;;25.48;8.73;;;16.70;99.90;;;;;;4966846;28;20101;-77
2022/12/10 00:46:44;;;;;;;34.28;9.13;;;16.70;99.90;;;;;;4961095;28;20043;-77
2022/12/10 00:49:12;;;;;;;25.13;9.68;;;16.70;99.90;;;;;;4966371;28;20225;-78
2022/12/10 00:51:39;;;;;;;28.55;9.95;;;16.70;99.90;;;;;;4967487;28;20038;-77
2022/12/10 00:54:07;;;;;;;20.58;8.32;;;16.70;99.90;;;;;;4949318;28;20073;-77
2022/12/10 00:56:35;;;;;;;39.08;11.52;;;16.70;99.90;;;;;;4963727;28;20046;-77
2022/12/10 00:59:04;;;;;;;21.45;9.13;;;16.70;99.90;;;;;;4950907;28;20042;-77
2022/12/10 01:01:37;;;;;;;34.22;9.52;;;16.70;99.90;;;;;;4967615;28;20055;-78
2022/12/10 01:04:15;;;;;;;27.80;10.48;;;16.70;99.90;;;;;;4957538;28;20501;-78
2022/12/10 01:06:45;;;;;;;53.00;10.20;;;16.60;99.90;;;;;;4962848;28;20051;-78
2022/12/10 01:09:16;;;;;;;23.92;10.45;;;16.60;99.90;;;;;;4966075;28;20034;-79
2022/12/10 01:11:46;;;;;;;28.73;8.60;;;16.60;99.90;;;;;;4959522;28;20046;-78
2022/12/10 01:14:17;;;;;;;26.27;10.75;;;16.60;99.90;;;;;;4966489;28;20046;-78
2022/12/10 01:16:48;;;;;;;23.95;8.75;;;16.60;99.90;;;;;;4959856;28;20531;-78
2022/12/10 01:19:16;;;;;;;38.40;11.15;;;16.60;99.90;;;;;;4966467;28;20043;-78
2022/12/10 01:21:44;;;;;;;26.60;8.88;;;16.70;99.90;;;;;;4963241;28;20614;-78
2022/12/10 01:24:11;;;;;;;29.95;11.43;;;16.60;99.90;;;;;;4969368;28;20058;-78
2022/12/10 01:26:39;;;;;;;29.33;9.63;;;16.60;99.90;;;;;;4969636;28;20572;-78
2022/12/10 01:29:06;;;;;;;30.65;9.30;;;16.60;99.90;;;;;;4969857;28;20174;-78
2022/12/10 01:31:36;;;;;;;35.45;12.13;;;16.60;99.90;;;;;;4964393;28;20055;-78
2022/12/10 01:34:07;;;;;;;30.05;10.35;;;16.60;99.90;;;;;;4936946;29;20050;-78
2022/12/10 01:36:37;;;;;;;34.50;10.52;;;16.60;99.90;;;;;;4959254;28;20401;-78
2022/12/10 01:39:07;;;;;;;29.10;10.55;;;16.60;99.90;;;;;;4965685;28;20058;-78
2022/12/10 01:41:39;;;;;;;34.38;13.52;;;16.60;99.90;;;;;;4969578;28;20390;-78
2022/12/10 01:44:09;;;;;;;33.20;11.93;;;16.60;99.90;;;;;;4955941;28;20134;-78
2022/12/10 01:46:39;;;;;;;32.17;10.57;;;16.60;99.90;;;;;;4953860;28;20087;-78
2022/12/10 01:49:18;;;;;;;21.10;8.98;;;16.50;99.90;;;;;;4968318;28;20134;-78
2022/12/10 01:51:55;;;;;;;38.05;10.93;;;16.50;99.90;;;;;;4966028;28;20046;-78
2022/12/10 01:54:30;;;;;;;25.73;10.65;;;16.50;99.90;;;;;;4967350;28;20493;-78
2022/12/10 01:57:06;;;;;;;33.90;11.82;;;16.40;99.90;;;;;;4960757;28;20050;-77
2022/12/10 01:59:35;;;;;;;30.88;13.43;;;16.40;99.90;;;;;;4948810;28;20381;-78
2022/12/10 02:02:32;;;;;;;28.65;10.73;;;16.50;99.90;;;;;;4961539;28;20524;-79
2022/12/10 02:05:23;;;;;;;;;;;16.50;99.90;;;;;;4966196;28;20497;-78
2022/12/10 02:08:19;;;;;;;39.78;11.02;;;16.50;99.90;;;;;;4974504;28;20020;-78
2022/12/10 02:11:16;;;;;;;38.90;13.02;;;16.40;99.90;;;;;;4964396;28;20086;-78
2022/12/10 02:14:06;;;;;;;40.03;11.88;;;16.40;99.90;;;;;;4967234;28;20074;-78
2022/12/10 02:16:40;;;;;;;38.00;12.73;;;16.50;99.90;;;;;;4958842;28;20043;-77
2022/12/10 02:19:42;;;;;;;36.05;10.60;;;16.40;99.90;;;;;;4953156;28;20053;-77
2022/12/10 02:22:11;;;;;;;37.85;10.30;;;16.50;99.90;;;;;;4949356;28;20101;-77
2022/12/10 02:24:41;;;;;;;38.30;9.98;;;16.40;99.90;;;;;;4970197;28;20524;-78
2022/12/10 02:27:26;;;;;;;28.75;10.65;;;16.40;99.90;;;;;;4950288;28;20836;-78
2022/12/10 02:29:55;;;;;;;31.25;10.82;;;16.40;99.90;;;;;;4960737;28;20408;-78
2022/12/10 02:32:29;;;;;;;28.98;10.75;;;16.40;99.90;;;;;;4948072;28;20035;-77
2022/12/10 02:35:05;;;;;;;48.83;10.68;;;16.40;99.90;;;;;;4968115;28;20039;-77
2022/12/10 02:37:39;;;;;;;25.92;9.85;;;16.40;99.90;;;;;;4961532;28;20177;-76
2022/12/10 02:40:13;;;;;;;33.97;11.35;;;16.40;99.90;;;;;;4939558;28;20469;-76
2022/12/10 02:42:45;;;;;;;27.50;10.07;;;16.40;99.90;;;;;;4960505;28;20035;-77
2022/12/10 02:45:13;;;;;;;30.20;10.48;;;16.30;99.90;;;;;;4966872;28;20039;-76
2022/12/10 02:47:42;;;;;;;33.30;10.35;;;16.40;99.90;;;;;;4966652;28;20043;-78
2022/12/10 02:50:18;;;;;;;29.40;9.15;;;16.30;99.90;;;;;;4950726;28;20043;-77
2022/12/10 02:52:49;;;;;;;32.10;11.13;;;16.30;99.90;;;;;;4955160;28;20042;-77
2022/12/10 02:55:19;;;;;;;33.15;10.18;;;16.30;99.90;;;;;;4953336;28;20065;-76
2022/12/10 02:57:49;;;;;;;31.70;12.60;;;16.40;99.90;;;;;;4953430;28;20449;-76
2022/12/10 03:00:21;;;;;;;29.05;9.55;;;16.30;99.90;;;;;;4969920;28;20166;-76
2022/12/10 03:02:59;;;;;;;41.97;9.43;;;16.30;99.90;;;;;;4969504;28;20065;-76
2022/12/10 03:05:33;;;;;;;27.27;10.23;;;16.30;99.90;;;;;;4948462;29;20109;-76
2022/12/10 03:08:18;;;;;;;32.88;10.40;;;16.30;99.90;;;;;;4949364;29;20067;-76
2022/12/10 03:10:58;;;;;;;38.38;8.88;;;16.40;99.90;;;;;;4950973;28;20130;-75
2022/12/10 03:13:45;;;;;;;34.42;9.80;;;16.30;99.90;;;;;;4933664;29;20050;-75
2022/12/10 03:16:14;;;;;;;28.20;10.02;;;16.30;99.90;;;;;;4949462;29;20140;-76
2022/12/10 03:18:45;;;;;;;28.52;10.07;;;16.40;99.90;;;;;;4950864;28;20078;-76
2022/12/10 03:21:15;;;;;;;28.65;9.82;;;16.40;99.90;;;;;;4950221;29;20592;-76
2022/12/10 03:23:45;;;;;;;33.10;11.68;;;16.30;99.90;;;;;;4968743;28;20050;-76
2022/12/10 03:26:13;;;;;;;29.58;10.90;;;16.30;99.90;;;;;;4970771;28;20050;-75
2022/12/10 03:28:49;;;;;;;41.47;11.13;;;16.40;99.90;;;;;;4953515;28;20153;-75
2022/12/10 03:31:18;;;;;;;35.47;10.00;;;16.30;99.90;;;;;;4970367;28;20055;-76
2022/12/10 03:33:47;;;;;;;41.92;10.48;;;16.40;99.90;;;;;;4954408;28;20445;-76
2022/12/10 03:36:18;;;;;;;23.42;8.38;;;16.40;99.90;;;;;;4959012;28;20051;-76
2022/12/10 03:38:46;;;;;;;29.65;10.52;;;16.40;99.90;;;;;;4952163;29;20085;-75
2022/12/10 03:41:13;;;;;;;40.30;12.05;;;16.30;99.90;;;;;;4952057;28;20062;-75
2022/12/10 03:43:58;;;;;;;39.42;9.32;;;16.40;99.90;;;;;;4934122;29;20051;-75
2022/12/10 03:46:28;;;;;;;21.42;9.23;;;16.40;99.90;;;;;;4951676;29;20043;-77
2022/12/10 03:48:56;;;;;;;30.00;9.73;;;16.30;99.90;;;;;;4950432;29;20043;-76
2022/12/10 03:51:24;;;;;;;34.58;9.43;;;16.30;99.90;;;;;;4950526;29;20079;-76
2022/12/10 03:53:51;;;;;;;29.85;12.48;;;16.30;99.90;;;;;;4950373;29;20043;-75
2022/12/10 03:56:20;;;;;;;30.70;9.13;;;16.30;99.90;;;;;;4963648;28;20047;-75
2022/12/10 03:58:48;;;;;;;33.17;9.60;;;16.30;99.90;;;;;;4970566;28;20074;-76
2022/12/10 04:01:16;;;;;;;40.55;13.75;;;16.30;99.90;;;;;;4970734;28;20057;-75
2022/12/10 04:03:43;;;;;;;28.45;11.32;;;16.30;99.90;;;;;;4970047;28;20057;-75
2022/12/10 04:06:16;;;;;;;25.50;9.38;;;16.30;99.90;;;;;;4960518;28;20043;-75
2022/12/10 04:08:44;;;;;;;23.42;9.57;;;16.30;99.90;;;;;;4950162;29;20047;-76
2022/12/10 04:11:13;;;;;;;30.50;9.07;;;16.30;99.90;;;;;;4917170;29;20090;-77
2022/12/10 04:16:28;;;;;;;27.38;10.40;;;16.30;99.90;;;;;;4963506;28;20070;-75
2022/12/10 04:18:59;;;;;;;36.03;9.57;;;16.30;99.90;;;;;;4969675;28;20513;-76
2022/12/10 04:27:10;;;;;;;33.80;9.02;;;16.20;99.90;;;;;;4969240;28;20051;-77
2022/12/10 04:29:38;;;;;;;50.17;11.88;;;16.30;99.90;;;;;;4970234;28;20498;-76
2022/12/10 04:32:06;;;;;;;27.42;8.20;;;16.20;99.90;;;;;;4967896;28;20039;-75
2022/12/10 04:34:33;;;;;;;37.63;10.50;;;16.20;99.90;;;;;;4970162;28;20058;-77
2022/12/10 04:37:02;;;;;;;33.05;10.75;;;16.30;99.90;;;;;;4966683;28;20051;-76
2022/12/10 04:39:30;;;;;;;36.40;12.32;;;16.20;99.90;;;;;;4970053;28;20050;-75
2022/12/10 04:41:59;;;;;;;28.02;8.68;;;16.20;99.90;;;;;;4969151;28;20046;-76
2022/12/10 04:44:27;;;;;;;39.58;8.75;;;16.20;99.90;;;;;;4952938;28;20057;-76
2022/12/10 04:46:54;;;;;;;31.02;9.43;;;16.20;99.90;;;;;;4937379;29;20084;-75
2022/12/10 04:49:23;;;;;;;22.38;9.43;;;16.20;99.90;;;;;;4950654;28;20497;-76
2022/12/10 04:51:50;;;;;;;23.77;9.60;;;16.20;99.90;;;;;;4950779;28;20375;-76
2022/12/10 04:54:19;;;;;;;36.72;11.13;;;16.30;99.90;;;;;;4949511;29;20541;-76
2022/12/10 04:56:46;;;;;;;39.00;12.50;;;16.20;99.90;;;;;;4947306;28;20401;-76
2022/12/10 04:59:15;;;;;;;30.08;10.05;;;16.20;99.90;;;;;;4969862;28;20050;-76
2022/12/10 05:01:42;;;;;;;28.35;9.88;;;16.20;99.90;;;;;;4968673;28;20046;-76
2022/12/10 05:04:13;;;;;;;26.77;10.32;;;16.20;99.90;;;;;;4969244;28;20051;-75
2022/12/10 05:06:42;;;;;;;25.48;10.25;;;16.20;99.90;;;;;;4956647;28;20047;-76
2022/12/10 05:09:11;;;;;;;39.95;10.90;;;16.20;99.90;;;;;;4949860;29;20632;-75
2022/12/10 05:11:39;;;;;;;41.63;11.15;;;16.20;99.90;;;;;;4948852;28;20047;-76
2022/12/10 05:14:06;;;;;;;42.10;11.10;;;16.20;99.90;;;;;;4950438;28;20051;-76
2022/12/10 05:16:34;;;;;;;28.60;10.07;;;16.20;99.90;;;;;;4961667;28;20055;-76
2022/12/10 05:19:01;;;;;;;29.42;9.85;;;16.20;99.90;;;;;;4969916;28;20485;-76
2022/12/10 05:24:16;;;;;;;;;;;16.20;99.90;;;;;;4968800;28;20061;-76
2022/12/10 05:26:44;;;;;;;24.98;8.52;;;16.20;99.90;;;;;;4954963;28;20068;-75
2022/12/10 05:29:14;;;;;;;23.23;8.68;;;16.20;99.90;;;;;;4948662;28;20122;-77
2022/12/10 05:31:41;;;;;;;31.63;10.30;;;16.20;99.90;;;;;;4967581;28;20062;-77
2022/12/10 05:34:11;;;;;;;41.28;13.05;;;16.20;99.90;;;;;;4968452;28;20497;-76
2022/12/10 05:36:38;;;;;;;31.05;9.13;;;16.20;99.90;;;;;;4969485;28;20039;-75
2022/12/10 05:39:06;;;;;;;34.63;10.65;;;16.20;99.90;;;;;;4968296;28;20125;-75
2022/12/10 05:41:36;;;;;;;31.95;10.57;;;16.30;99.90;;;;;;4968268;28;20043;-76
2022/12/10 05:44:04;;;;;;;20.02;8.27;;;16.30;99.90;;;;;;4968568;28;20042;-76
2022/12/10 05:46:34;;;;;;;25.70;10.80;;;16.30;99.90;;;;;;4952374;28;20509;-76
2022/12/10 05:49:04;;;;;;;26.38;8.90;;;16.30;99.90;;;;;;4969560;28;20050;-75
2022/12/10 05:51:35;;;;;;;34.55;11.43;;;16.30;99.90;;;;;;4969095;28;20109;-76
2022/12/10 05:54:05;;;;;;;37.17;10.73;;;16.30;99.90;;;;;;4967909;28;20413;-75
2022/12/10 05:56:34;;;;;;;26.00;9.57;;;16.30;99.90;;;;;;4957647;28;20458;-76
2022/12/10 05:59:03;;;;;;;36.08;11.25;;;16.30;99.90;;;;;;4949219;29;20382;-78
2022/12/10 06:01:33;;;;;;;21.83;9.32;;;16.30;99.90;;;;;;4932895;29;20576;-75
2022/12/10 06:04:03;;;;;;;26.85;9.25;;;16.30;99.90;;;;;;4950182;28;20054;-77
2022/12/10 06:06:32;;;;;;;18.30;8.43;;;16.30;99.90;;;;;;4961706;28;20145;-76
2022/12/10 06:09:00;;;;;;;40.88;11.52;;;16.30;99.90;;;;;;4938995;28;20146;-76
2022/12/10 06:11:28;;;;;;;23.60;9.73;;;16.30;99.90;;;;;;4971610;28;20065;-75
2022/12/10 06:13:59;;;;;;;33.45;10.43;;;16.40;99.90;;;;;;4971372;28;20540;-76
2022/12/10 06:16:28;;;;;;;34.63;10.93;;;16.40;99.90;;;;;;4962433;28;20054;-76
2022/12/10 06:18:56;;;;;;;36.35;11.32;;;16.40;99.90;;;;;;4936067;29;20394;-76
2022/12/10 06:21:24;;;;;;;31.63;11.88;;;16.40;99.90;;;;;;4951518;29;20170;-75
2022/12/10 06:23:52;;;;;;;32.55;11.43;;;16.40;99.90;;;;;;4934733;28;20524;-77
2022/12/10 06:26:24;;;;;;;27.10;8.75;;;16.40;99.90;;;;;;4962550;28;20452;-76
2022/12/10 06:28:53;;;;;;;35.70;11.48;;;16.50;99.90;;;;;;4968424;28;20047;-76
2022/12/10 06:31:21;;;;;;;40.90;12.75;;;16.50;99.90;;;;;;4951888;28;20111;-76
2022/12/10 06:33:50;;;;;;;28.50;10.80;;;16.50;99.90;;;;;;4951550;28;20069;-76
2022/12/10 06:36:19;;;;;;;29.75;10.75;;;16.50;99.90;;;;;;4960679;28;20066;-76
2022/12/10 06:38:47;;;;;;;52.85;10.95;;;16.50;99.90;;;;;;4971387;28;20074;-75
2022/12/10 06:41:17;;;;;;;29.88;10.50;;;16.50;99.90;;;;;;4971697;28;20059;-77
2022/12/10 06:43:45;;;;;;;27.23;9.18;;;16.60;99.90;;;;;;4969545;28;20085;-76
2022/12/10 06:46:18;;;;;;;31.38;9.93;;;16.60;99.90;;;;;;4964013;28;20221;-75
2022/12/10 06:48:46;;;;;;;31.40;9.82;;;16.60;99.90;;;;;;4952520;29;20047;-78
2022/12/10 06:51:14;;;;;;;28.77;10.10;;;16.60;99.90;;;;;;4950699;28;20077;-76
2022/12/10 06:53:42;;;;;;;29.65;11.75;;;16.60;99.90;;;;;;4952256;28;20054;-76
2022/12/10 06:56:15;;;;;;;24.60;10.52;;;16.60;99.90;;;;;;4943377;28;20066;-76
2022/12/10 06:58:43;;;;;;;34.63;10.52;;;16.70;99.90;;;;;;4972852;28;20495;-75
2022/12/10 07:01:19;;;;;;;27.88;8.77;;;16.70;99.90;;;;;;4979500;28;20468;-77
2022/12/10 07:03:49;;;;;;;;;;;16.70;99.90;;;;;;4964209;28;20050;-76
2022/12/10 07:06:17;;;;;;;27.17;10.95;;;16.70;99.90;;;;;;4955132;28;19968;-77
2022/12/10 07:08:45;;;;;;;24.42;8.98;;;16.70;99.90;;;;;;4966654;28;20126;-76
2022/12/10 07:11:15;;;;;;;24.83;8.02;;;16.70;99.90;;;;;;4966350;28;20572;-76
2022/12/10 07:13:43;;;;;;;35.30;9.35;;;16.70;99.90;;;;;;4963348;28;20043;-75
2022/12/10 07:16:37;;;;;;;24.10;9.15;;;16.70;99.90;;;;;;4957202;28;20051;-76
2022/12/10 07:19:04;;;;;;;31.17;10.07;;;16.70;99.90;;;;;;4961123;28;20144;-75
2022/12/10 07:21:34;;;;;;;31.42;10.80;;;16.70;99.90;;;;;;4960855;28;20051;-76
2022/12/10 07:24:04;;;;;;;24.13;9.50;;;16.80;99.90;;;;;;4969420;28;20730;-77
2022/12/10 07:26:35;;;;;;;30.05;8.30;;;16.80;99.90;;;;;;4960635;28;20082;-75
2022/12/10 07:29:05;;;;;;;33.30;9.68;;;16.80;99.90;;;;;;4968545;28;20131;-75
2022/12/10 07:31:34;;;;;;;33.95;10.63;;;16.80;99.90;;;;;;4965541;28;20090;-75
2022/12/10 07:34:02;;;;;;;36.30;10.13;;;16.80;99.90;;;;;;4966263;28;20054;-74
2022/12/10 07:36:29;;;;;;;31.17;9.07;;;16.90;99.90;;;;;;4965460;28;20061;-74
2022/12/10 07:38:57;;;;;;;25.95;10.52;;;16.80;99.90;;;;;;4969773;28;20134;-74
2022/12/10 07:41:25;;;;;;;31.95;9.23;;;16.90;99.90;;;;;;4965033;28;20050;-74
2022/12/10 07:43:53;;;;;;;31.15;10.43;;;16.90;99.90;;;;;;4963464;28;20085;-77
2022/12/10 07:46:26;;;;;;;26.00;10.75;;;16.90;99.90;;;;;;4967355;28;20486;-74
2022/12/10 07:48:54;;;;;;;31.27;10.65;;;16.90;99.90;;;;;;4970487;28;20772;-75
2022/12/10 07:51:22;;;;;;;46.50;11.60;;;17.00;99.90;;;;;;4961277;28;20112;-75
2022/12/10 07:53:54;;;;;;;23.40;8.15;;;17.00;99.90;;;;;;4934217;29;20058;-75
2022/12/10 07:56:24;;;;;;;26.75;9.00;;;17.00;99.90;;;;;;4955487;28;20066;-74
2022/12/10 07:58:52;;;;;;;28.13;8.27;;;17.00;99.90;;;;;;4950416;28;20225;-74
2022/12/10 08:01:23;;;;;;;32.70;7.55;;;17.10;99.90;;;;;;4934248;29;20138;-73
2022/12/10 08:03:52;;;;;;;34.50;9.98;;;17.10;99.90;;;;;;4968978;28;20105;-74
2022/12/10 08:06:21;;;;;;;34.53;9.75;;;17.10;99.90;;;;;;4968547;28;20042;-74
2022/12/10 08:08:50;;;;;;;30.30;10.20;;;17.10;99.90;;;;;;4969067;28;20047;-75
2022/12/10 08:11:19;;;;;;;33.47;9.48;;;17.20;99.90;;;;;;4970249;28;20054;-74
2022/12/10 08:13:47;;;;;;;32.03;10.65;;;17.20;99.90;;;;;;4970739;28;20068;-75
2022/12/10 08:16:22;;;;;;;42.50;10.38;;;17.30;99.90;;;;;;4969457;28;20138;-75
2022/12/10 08:18:50;;;;;;;43.10;12.93;;;17.30;99.90;;;;;;4970637;28;20046;-74
2022/12/10 08:21:21;;;;;;;24.60;7.15;;;17.40;99.90;;;;;;4970130;28;20114;-76
2022/12/10 08:23:49;;;;;;;29.35;9.73;;;17.40;99.90;;;;;;4950441;28;20138;-74
2022/12/10 08:26:21;;;;;;;25.88;8.98;;;17.40;99.90;;;;;;4958768;28;20034;-74
2022/12/10 08:28:50;;;;;;;25.83;8.57;;;17.50;99.90;;;;;;4970065;28;20049;-75
2022/12/10 08:31:20;;;;;;;31.90;8.82;;;17.50;99.90;;;;;;4967889;28;20058;-75
2022/12/10 08:33:48;;;;;;;27.55;8.23;;;17.50;99.90;;;;;;4951514;28;20394;-75
2022/12/10 08:36:17;;;;;;;29.92;9.75;;;17.50;99.90;;;;;;4970784;28;20042;-73
2022/12/10 08:38:45;;;;;;;21.45;8.35;;;17.60;99.90;;;;;;4970610;28;20058;-73
2022/12/10 08:41:21;;;;;;;35.88;10.43;;;17.60;99.90;;;;;;4968970;28;20528;-75
2022/12/10 08:43:52;;;;;;;28.92;8.32;;;17.70;99.90;;;;;;4969360;28;20042;-73
2022/12/10 08:46:19;;;;;;;22.77;7.78;;;17.70;99.90;;;;;;4967648;28;20785;-74
2022/12/10 08:48:47;;;;;;;25.73;8.23;;;17.70;99.90;;;;;;4950825;28;20042;-75
2022/12/10 08:51:17;;;;;;;40.70;9.40;;;17.70;99.90;;;;;;4966630;28;20070;-74
2022/12/10 08:53:45;;;;;;;27.38;9.20;;;17.70;99.90;;;;;;4967388;28;20520;-75
2022/12/10 08:56:13;;;;;;;33.65;10.18;;;17.70;99.90;;;;;;4961640;28;20102;-75
2022/12/10 08:58:41;;;;;;;21.75;7.95;;;17.80;99.90;;;;;;4954561;28;20051;-73
2022/12/10 09:01:14;;;;;;;28.95;9.55;;;17.80;99.90;;;;;;4968653;28;20069;-73
2022/12/10 09:03:42;;;;;;;18.92;6.97;;;17.80;99.90;;;;;;4958671;28;20043;-73
2022/12/10 09:06:14;;;;;;;23.65;9.25;;;17.80;99.90;;;;;;4944417;29;20054;-74
2022/12/10 09:08:42;;;;;;;31.67;9.52;;;17.90;99.90;;;;;;4963889;28;20070;-74
2022/12/10 09:11:23;;;;;;;15.93;8.05;;;17.90;99.90;;;;;;4968903;28;20137;-73
2022/12/10 09:13:52;;;;;;;27.25;7.03;;;17.80;99.90;;;;;;4969141;28;20501;-74
2022/12/10 09:16:27;;;;;;;36.40;9.85;;;17.80;99.90;;;;;;4967965;28;20116;-74
2022/12/10 09:18:54;;;;;;;24.98;7.70;;;17.80;99.90;;;;;;4968759;28;20094;-74
2022/12/10 09:21:22;;;;;;;23.02;9.55;;;17.80;99.90;;;;;;4969547;28;20106;-73
2022/12/10 09:23:51;;;;;;;29.67;8.23;;;17.80;99.90;;;;;;4968954;28;20485;-74
2022/12/10 09:26:19;;;;;;;22.25;9.50;;;17.80;99.90;;;;;;4961283;28;20058;-74
2022/12/10 09:28:47;;;;;;;37.22;8.75;;;17.80;99.90;;;;;;4958017;28;20507;-75
2022/12/10 09:31:17;;;;;;;27.02;8.55;;;17.80;99.90;;;;;;4947252;28;20389;-74
2022/12/10 09:33:46;;;;;;;30.70;8.57;;;17.80;99.90;;;;;;4983773;28;20130;-73
2022/12/10 09:36:14;;;;;;;23.75;8.80;;;17.80;99.90;;;;;;4963783;28;20093;-74
2022/12/10 09:38:44;;;;;;;29.92;9.05;;;17.90;99.90;;;;;;4963366;28;20161;-74
2022/12/10 09:41:17;;;;;;;41.00;9.65;;;17.80;99.90;;;;;;4947138;28;20438;-77
2022/12/10 09:44:11;;;;;;;36.08;10.52;;;17.80;99.90;;;;;;4972597;28;20493;-74
2022/12/10 09:46:51;;;;;;;28.80;9.77;;;17.90;99.90;;;;;;4963947;28;20051;-75
2022/12/10 09:49:24;;;;;;;23.33;8.55;;;17.90;99.90;;;;;;4972121;28;20047;-75
2022/12/10 09:51:59;;;;;;;23.83;7.65;;;17.90;99.90;;;;;;4973405;28;20046;-76
2022/12/10 09:54:32;;;;;;;12.93;7.68;;;17.90;99.90;;;;;;4970495;28;20105;-74
2022/12/10 09:57:03;;;;;;;23.05;8.32;;;17.90;99.90;;;;;;4983530;28;20503;-73
2022/12/10 09:59:36;;;;;;;15.60;7.82;;;17.90;99.90;;;;;;4971417;28;20054;-74
2022/12/10 10:02:27;;;;;;;21.90;8.50;;;17.90;99.90;;;;;;4970224;28;20137;-73
2022/12/10 10:05:05;;;;;;;27.02;8.00;;;17.90;99.90;;;;;;4965860;28;20528;-72
2022/12/10 10:07:36;;;;;;;27.00;7.93;;;18.00;99.90;;;;;;4969571;28;20054;-73
2022/12/10 10:10:07;;;;;;;26.15;7.85;;;18.00;99.90;;;;;;4952850;28;20045;-73
2022/12/10 10:12:37;;;;;;;24.02;7.57;;;18.00;99.90;;;;;;4952493;29;20051;-73
2022/12/10 10:15:18;;;;;;;19.70;7.82;;;18.00;99.90;;;;;;4957910;28;20113;-74
2022/12/10 10:17:49;;;;;;;24.88;8.27;;;18.00;99.90;;;;;;4967897;28;20053;-74
2022/12/10 10:20:17;;;;;;;17.23;6.53;;;18.00;99.90;;;;;;4971551;28;20049;-75
2022/12/10 10:22:45;;;;;;;24.17;7.07;;;18.00;99.90;;;;;;4972449;28;20071;-73
2022/12/10 10:25:19;;;;;;;14.52;7.38;;;18.00;99.90;;;;;;4970431;28;20417;-73
2022/12/10 10:27:46;;;;;;;32.65;7.30;;;18.00;99.90;;;;;;4971893;28;20043;-73
2022/12/10 10:30:20;;;;;;;23.13;7.45;;;18.00;99.90;;;;;;4972637;28;20039;-73
2022/12/10 10:32:51;;;;;;;26.25;8.38;;;18.00;99.90;;;;;;4971354;28;20055;-73
2022/12/10 10:35:33;;;;;;;21.50;7.40;;;18.00;99.90;;;;;;4970118;28;20505;-74
2022/12/10 10:38:14;;;;;;;29.40;9.48;;;18.00;99.90;;;;;;4971179;28;20061;-73
2022/12/10 10:40:45;;;;;;;19.00;7.70;;;18.00;99.90;;;;;;4972318;28;20043;-74
2022/12/10 10:43:19;;;;;;;22.23;7.72;;;18.00;99.90;;;;;;4972121;28;20115;-73
2022/12/10 10:45:58;;;;;;;31.15;9.80;;;18.10;99.90;;;;;;4969288;28;20034;-73
2022/12/10 10:48:27;;;;;;;22.38;8.00;;;18.00;99.90;;;;;;4958469;28;20039;-73
2022/12/10 10:51:16;;;;;;;22.88;7.18;;;18.00;99.90;;;;;;4961015;28;20051;-73
2022/12/10 10:53:54;;;;;;;22.42;7.80;;;18.00;99.90;;;;;;4960347;28;20387;-73
2022/12/10 10:56:29;;;;;;;20.58;6.70;;;18.00;99.90;;;;;;4922327;29;20481;-75
2022/12/10 10:59:26;;;;;;;20.17;6.97;;;18.00;99.90;;;;;;4951294;29;20047;-73
2022/12/10 11:02:15;;;;;;;30.00;10.00;;;18.00;99.90;;;;;;4954150;28;20043;-74
2022/12/10 11:04:49;;;;;;;31.90;10.60;;;18.00;99.90;;;;;;4961523;28;20153;-74
2022/12/10 11:07:20;;;;;;;28.65;9.25;;;18.00;99.90;;;;;;4944972;29;20355;-73
2022/12/10 11:09:49;;;;;;;31.65;10.35;;;18.00;99.90;;;;;;4954754;28;20134;-73
2022/12/10 11:12:37;;;;;;;22.60;8.43;;;18.00;99.90;;;;;;4926602;28;20066;-74
2022/12/10 11:15:24;;;;;;;31.67;9.40;;;18.00;99.90;;;;;;4971473;28;20425;-73
2022/12/10 11:17:55;;;;;;;30.48;10.00;;;18.00;99.90;;;;;;4968233;28;20066;-74
2022/12/10 11:20:32;;;;;;;24.45;6.85;;;18.00;99.90;;;;;;4969835;28;20405;-75
2022/12/10 11:23:10;;;;;;;43.38;8.63;;;18.00;99.90;;;;;;4969171;28;20047;-73
2022/12/10 11:26:18;;;;;;;26.03;8.60;;;18.00;99.90;;;;;;4950677;29;20055;-75
2022/12/10 11:28:50;;;;;;;19.65;7.45;;;18.00;99.90;;;;;;4945131;28;20142;-73
2022/12/10 11:31:40;;;;;;;22.60;7.70;;;18.10;99.90;;;;;;4950344;29;20085;-72
2022/12/10 11:34:39;;;;;;;28.35;9.43;;;18.10;99.90;;;;;;4950969;29;20513;-75
2022/12/10 11:37:37;;;;;;;17.85;8.98;;;18.10;99.90;;;;;;4962163;28;20043;-74
2022/12/10 11:40:32;;;;;;;27.40;10.80;;;18.10;99.90;;;;;;4968956;28;20050;-72
2022/12/10 11:43:23;;;;;;;22.65;7.85;;;18.10;99.90;;;;;;4971300;28;20133;-73
2022/12/10 11:46:07;;;;;;;24.75;7.78;;;18.10;99.90;;;;;;4952747;28;20055;-73
2022/12/10 11:48:38;;;;;;;19.88;6.93;;;18.10;99.90;;;;;;4949646;29;20047;-72
2022/12/10 11:51:39;;;;;;;24.42;8.80;;;18.10;99.90;;;;;;4950407;29;20055;-73
2022/12/10 11:54:17;;;;;;;30.33;8.45;;;18.10;99.90;;;;;;4952032;29;20121;-72
2022/12/10 11:56:50;;;;;;;43.40;10.00;;;18.10;99.90;;;;;;4958553;28;20046;-73
2022/12/10 11:59:44;;;;;;;28.70;12.32;;;18.10;99.90;;;;;;4969665;28;20035;-73
2022/12/10 12:03:02;;;;;;;29.83;7.88;;;18.20;99.90;;;;;;4969693;28;20046;-74
2022/12/10 12:05:57;;;;;;;22.25;7.93;;;18.10;99.90;;;;;;4952335;28;20074;-73
2022/12/10 12:08:46;;;;;;;34.63;8.60;;;18.20;99.90;;;;;;4951049;29;20130;-74
2022/12/10 12:11:38;;;;;;;37.63;8.83;;;18.20;99.90;;;;;;4950018;29;20158;-74
2022/12/10 12:14:26;;;;;;;18.90;6.90;;;18.20;99.90;;;;;;4950257;29;20051;-73
2022/12/10 12:17:44;;;;;;;28.88;8.00;;;18.30;99.90;;;;;;4958418;28;20149;-73
2022/12/10 12:20:28;;;;;;;39.65;8.40;;;18.30;99.90;;;;;;4967635;28;20073;-74
2022/12/10 12:23:14;;;;;;;24.05;7.80;;;18.20;99.90;;;;;;4969551;28;20070;-74
2022/12/10 12:25:48;;;;;;;29.47;9.20;;;18.20;99.90;;;;;;4946014;29;20075;-73
2022/12/10 12:28:15;;;;;;;31.20;8.40;;;18.20;99.90;;;;;;4950856;28;20094;-75
2022/12/10 12:30:47;;;;;;;25.75;7.70;;;18.20;99.90;;;;;;4950820;28;20489;-75
2022/12/10 12:33:32;;;;;;;32.75;9.20;;;18.10;99.90;;;;;;4949644;29;20508;-73
2022/12/10 12:36:06;;;;;;;27.02;9.93;;;18.20;99.90;;;;;;4935383;28;20111;-73
2022/12/10 12:38:59;;;;;;;39.30;8.57;;;18.10;99.90;;;;;;4969023;28;20101;-73
2022/12/10 12:41:46;;;;;;;23.98;9.02;;;18.10;99.90;;;;;;4952649;28;20058;-73
2022/12/10 12:44:45;;;;;;;32.00;8.73;;;18.20;99.90;;;;;;4953116;28;20482;-73
2022/12/10 12:47:29;;;;;;;21.58;8.27;;;18.20;99.90;;;;;;4941135;29;20089;-73
2022/12/10 12:49:58;;;;;;;27.33;9.10;;;18.20;99.90;;;;;;4933740;29;20061;-72
2022/12/10 12:52:46;;;;;;;25.02;8.77;;;18.20;99.90;;;;;;4950682;28;20043;-73
2022/12/10 12:55:42;;;;;;;30.67;8.70;;;18.20;99.90;;;;;;4949509;29;20055;-72
2022/12/10 12:58:32;;;;;;;34.38;8.90;;;18.20;99.90;;;;;;4942272;28;20453;-73
2022/12/10 13:01:21;;;;;;;32.42;9.07;;;18.30;99.90;;;;;;4949827;28;20043;-74
2022/12/10 13:03:50;;;;;;;20.70;8.23;;;18.30;99.90;;;;;;4967103;28;20404;-72
2022/12/10 13:06:24;;;;;;;26.17;7.97;;;18.30;99.90;;;;;;4969596;28;20053;-72
2022/12/10 13:09:13;;;;;;;25.25;7.60;;;18.30;99.90;;;;;;4943492;28;20146;-75
2022/12/10 13:11:49;;;;;;;23.50;7.82;;;18.30;99.90;;;;;;4967127;28;20074;-74
2022/12/10 13:14:53;;;;;;;22.55;7.32;;;18.40;99.90;;;;;;4968728;28;20066;-73
2022/12/10 13:17:35;;;;;;;19.10;7.80;;;18.40;99.90;;;;;;4954938;28;20045;-72